sensor_id;sensor_type;location;lat;lon;timestamp;P1;durP1;ratioP1;P2;durP2;ratioP2
64857;SDS011;51335;51.148;6.950;2023-03-01T00:00:29;13.20;;;6.85;;
64857;SDS011;51335;51.148;6.950;2023-03-01T00:01:18;9.20;;;6.22;;
64857;SDS011;51335;51.148;6.950;2023-03-01T00:01:51;11.27;;;6.28;;
64857;SDS011;51335;51.148;6.950;2023-03-01T00:02:21;12.63;;;6.90;;
64857;SDS011;51335;51.148;6.950;2023-03-01T00:02:51;11.70;;;6.63;;
64857;SDS011;51335;51.148;6.950;2023-03-01T00:03:21;10.50;;;6.40;;
64857;SDS011;51335;51.148;6.950;2023-03-01T00:03:52;9.32;;;6.68;;
64857;SDS011;51335;51.148;6.950;2023-03-01T00:04:22;14.38;;;7.07;;
64857;SDS011;51335;51.148;6.950;2023-03-01T00:04:52;11.07;;;6.90;;
64857;SDS011;51335;51.148;6.950;2023-03-01T00:05:23;13.70;;;7.00;;
64857;SDS011;51335;51.148;6.950;2023-03-01T00:05:53;11.75;;;7.05;;
64857;SDS011;51335;51.148;6.950;2023-03-01T00:06:23;12.95;;;6.47;;
64857;SDS011;51335;51.148;6.950;2023-03-01T00:06:54;11.43;;;6.80;;
64857;SDS011;51335;51.148;6.950;2023-03-01T00:07:25;10.10;;;6.75;;
64857;SDS011;51335;51.148;6.950;2023-03-01T00:07:55;13.38;;;6.63;;
64857;SDS011;51335;51.148;6.950;2023-03-01T00:08:25;11.40;;;6.70;;
64857;SDS011;51335;51.148;6.950;2023-03-01T00:08:56;13.18;;;6.82;;
64857;SDS011;51335;51.148;6.950;2023-03-01T00:09:27;11.68;;;7.03;;
64857;SDS011;51335;51.148;6.950;2023-03-01T00:09:57;10.98;;;6.70;;
64857;SDS011;51335;51.148;6.950;2023-03-01T00:10:27;12.43;;;6.57;;
64857;SDS011;51335;51.148;6.950;2023-03-01T00:11:05;10.13;;;6.70;;
64857;SDS011;51335;51.148;6.950;2023-03-01T00:11:35;11.60;;;6.88;;
64857;SDS011;51335;51.148;6.950;2023-03-01T00:12:06;13.23;;;6.55;;
64857;SDS011;51335;51.148;6.950;2023-03-01T00:12:36;12.73;;;7.18;;
64857;SDS011;51335;51.148;6.950;2023-03-01T00:13:06;10.25;;;6.32;;
64857;SDS011;51335;51.148;6.950;2023-03-01T00:13:37;10.43;;;6.22;;
64857;SDS011;51335;51.148;6.950;2023-03-01T00:14:07;13.95;;;6.53;;
64857;SDS011;51335;51.148;6.950;2023-03-01T00:14:37;11.85;;;6.75;;
64857;SDS011;51335;51.148;6.950;2023-03-01T00:15:08;10.93;;;6.60;;
64857;SDS011;51335;51.148;6.950;2023-03-01T00:15:39;11.57;;;6.80;;
64857;SDS011;51335;51.148;6.950;2023-03-01T00:16:11;12.75;;;6.85;;
64857;SDS011;51335;51.148;6.950;2023-03-01T00:16:43;11.88;;;6.70;;
64857;SDS011;51335;51.148;6.950;2023-03-01T00:17:14;13.77;;;6.70;;
64857;SDS011;51335;51.148;6.950;2023-03-01T00:17:44;13.38;;;7.07;;
64857;SDS011;51335;51.148;6.950;2023-03-01T00:18:15;12.60;;;7.15;;
64857;SDS011;51335;51.148;6.950;2023-03-01T00:18:45;11.88;;;6.88;;
64857;SDS011;51335;51.148;6.950;2023-03-01T00:19:16;11.02;;;6.72;;
64857;SDS011;51335;51.148;6.950;2023-03-01T00:19:48;11.38;;;6.95;;
64857;SDS011;51335;51.148;6.950;2023-03-01T00:20:18;12.50;;;6.78;;
64857;SDS011;51335;51.148;6.950;2023-03-01T00:20:49;12.70;;;7.00;;
64857;SDS011;51335;51.148;6.950;2023-03-01T00:21:23;11.68;;;6.60;;
64857;SDS011;51335;51.148;6.950;2023-03-01T00:21:53;12.18;;;6.80;;
64857;SDS011;51335;51.148;6.950;2023-03-01T00:22:24;9.95;;;6.57;;
64857;SDS011;51335;51.148;6.950;2023-03-01T00:22:56;12.63;;;6.88;;
64857;SDS011;51335;51.148;6.950;2023-03-01T00:23:26;10.68;;;6.18;;
64857;SDS011;51335;51.148;6.950;2023-03-01T00:23:57;11.95;;;7.00;;
64857;SDS011;51335;51.148;6.950;2023-03-01T00:24:28;10.35;;;6.50;;
64857;SDS011;51335;51.148;6.950;2023-03-01T00:24:58;12.15;;;6.93;;
64857;SDS011;51335;51.148;6.950;2023-03-01T00:25:28;10.25;;;6.70;;
64857;SDS011;51335;51.148;6.950;2023-03-01T00:25:58;10.00;;;6.40;;
64857;SDS011;51335;51.148;6.950;2023-03-01T00:26:29;11.18;;;6.68;;
64857;SDS011;51335;51.148;6.950;2023-03-01T00:27:00;12.20;;;6.45;;
64857;SDS011;51335;51.148;6.950;2023-03-01T00:27:30;11.32;;;6.50;;
64857;SDS011;51335;51.148;6.950;2023-03-01T00:28:00;10.93;;;6.70;;
64857;SDS011;51335;51.148;6.950;2023-03-01T00:28:31;10.65;;;6.90;;
64857;SDS011;51335;51.148;6.950;2023-03-01T00:29:01;11.23;;;6.82;;
64857;SDS011;51335;51.148;6.950;2023-03-01T00:29:31;12.65;;;6.90;;
64857;SDS011;51335;51.148;6.950;2023-03-01T00:30:02;11.52;;;7.00;;
64857;SDS011;51335;51.148;6.950;2023-03-01T00:30:32;12.38;;;7.22;;
64857;SDS011;51335;51.148;6.950;2023-03-01T00:31:04;10.80;;;6.90;;
64857;SDS011;51335;51.148;6.950;2023-03-01T00:31:38;11.18;;;7.07;;
64857;SDS011;51335;51.148;6.950;2023-03-01T00:32:09;14.85;;;7.88;;
64857;SDS011;51335;51.148;6.950;2023-03-01T00:32:39;11.48;;;7.03;;
64857;SDS011;51335;51.148;6.950;2023-03-01T00:33:09;11.02;;;6.65;;
64857;SDS011;51335;51.148;6.950;2023-03-01T00:33:40;13.02;;;7.10;;
64857;SDS011;51335;51.148;6.950;2023-03-01T00:34:10;10.60;;;7.05;;
64857;SDS011;51335;51.148;6.950;2023-03-01T00:34:41;9.70;;;6.47;;
64857;SDS011;51335;51.148;6.950;2023-03-01T00:35:11;13.35;;;7.22;;
64857;SDS011;51335;51.148;6.950;2023-03-01T00:35:41;10.23;;;6.80;;
64857;SDS011;51335;51.148;6.950;2023-03-01T00:36:12;14.95;;;8.82;;
64857;SDS011;51335;51.148;6.950;2023-03-01T00:36:44;11.02;;;7.18;;
64857;SDS011;51335;51.148;6.950;2023-03-01T00:37:14;12.85;;;7.35;;
64857;SDS011;51335;51.148;6.950;2023-03-01T00:37:45;12.23;;;7.38;;
64857;SDS011;51335;51.148;6.950;2023-03-01T00:38:15;9.68;;;6.97;;
64857;SDS011;51335;51.148;6.950;2023-03-01T00:38:45;11.02;;;7.30;;
64857;SDS011;51335;51.148;6.950;2023-03-01T00:39:15;10.68;;;7.32;;
64857;SDS011;51335;51.148;6.950;2023-03-01T00:39:46;13.85;;;6.70;;
64857;SDS011;51335;51.148;6.950;2023-03-01T00:40:16;12.85;;;7.32;;
64857;SDS011;51335;51.148;6.950;2023-03-01T00:40:47;13.15;;;8.05;;
64857;SDS011;51335;51.148;6.950;2023-03-01T00:41:18;12.32;;;7.30;;
64857;SDS011;51335;51.148;6.950;2023-03-01T00:41:49;13.00;;;7.65;;
64857;SDS011;51335;51.148;6.950;2023-03-01T00:42:19;13.00;;;8.27;;
64857;SDS011;51335;51.148;6.950;2023-03-01T00:42:50;10.63;;;7.40;;
64857;SDS011;51335;51.148;6.950;2023-03-01T00:43:20;12.82;;;7.95;;
64857;SDS011;51335;51.148;6.950;2023-03-01T00:43:50;12.77;;;7.90;;
64857;SDS011;51335;51.148;6.950;2023-03-01T00:44:21;14.82;;;7.97;;
64857;SDS011;51335;51.148;6.950;2023-03-01T00:44:51;12.90;;;7.25;;
64857;SDS011;51335;51.148;6.950;2023-03-01T00:45:23;11.70;;;7.25;;
64857;SDS011;51335;51.148;6.950;2023-03-01T00:45:53;12.32;;;7.47;;
64857;SDS011;51335;51.148;6.950;2023-03-01T00:46:24;12.57;;;7.57;;
64857;SDS011;51335;51.148;6.950;2023-03-01T00:46:55;12.52;;;7.55;;
64857;SDS011;51335;51.148;6.950;2023-03-01T00:47:28;12.57;;;7.78;;
64857;SDS011;51335;51.148;6.950;2023-03-01T00:47:58;15.52;;;7.85;;
64857;SDS011;51335;51.148;6.950;2023-03-01T00:48:29;14.63;;;8.18;;
64857;SDS011;51335;51.148;6.950;2023-03-01T00:48:59;14.93;;;8.35;;
64857;SDS011;51335;51.148;6.950;2023-03-01T00:49:30;11.38;;;7.35;;
64857;SDS011;51335;51.148;6.950;2023-03-01T00:50:00;11.43;;;7.43;;
64857;SDS011;51335;51.148;6.950;2023-03-01T00:50:30;13.25;;;8.02;;
64857;SDS011;51335;51.148;6.950;2023-03-01T00:51:07;13.02;;;7.68;;
64857;SDS011;51335;51.148;6.950;2023-03-01T00:51:39;13.93;;;7.57;;
64857;SDS011;51335;51.148;6.950;2023-03-01T00:52:09;13.00;;;7.80;;
64857;SDS011;51335;51.148;6.950;2023-03-01T00:52:39;13.85;;;7.72;;
64857;SDS011;51335;51.148;6.950;2023-03-01T00:53:10;10.68;;;6.68;;
64857;SDS011;51335;51.148;6.950;2023-03-01T00:53:40;12.02;;;7.65;;
64857;SDS011;51335;51.148;6.950;2023-03-01T00:54:11;12.45;;;7.63;;
64857;SDS011;51335;51.148;6.950;2023-03-01T00:54:41;12.93;;;7.82;;
64857;SDS011;51335;51.148;6.950;2023-03-01T00:55:12;11.88;;;8.23;;
64857;SDS011;51335;51.148;6.950;2023-03-01T00:55:42;12.77;;;8.05;;
64857;SDS011;51335;51.148;6.950;2023-03-01T00:56:13;12.73;;;8.07;;
64857;SDS011;51335;51.148;6.950;2023-03-01T00:56:44;14.25;;;9.02;;
64857;SDS011;51335;51.148;6.950;2023-03-01T00:57:14;14.10;;;8.95;;
64857;SDS011;51335;51.148;6.950;2023-03-01T00:57:45;14.98;;;8.35;;
64857;SDS011;51335;51.148;6.950;2023-03-01T00:58:15;13.07;;;8.35;;
64857;SDS011;51335;51.148;6.950;2023-03-01T00:58:45;14.38;;;8.07;;
64857;SDS011;51335;51.148;6.950;2023-03-01T00:59:16;14.27;;;8.10;;
64857;SDS011;51335;51.148;6.950;2023-03-01T00:59:46;13.35;;;7.63;;
64857;SDS011;51335;51.148;6.950;2023-03-01T01:00:17;13.60;;;7.75;;
64857;SDS011;51335;51.148;6.950;2023-03-01T01:00:48;13.45;;;7.90;;
64857;SDS011;51335;51.148;6.950;2023-03-01T01:01:19;11.90;;;8.07;;
64857;SDS011;51335;51.148;6.950;2023-03-01T01:01:57;12.45;;;7.78;;
64857;SDS011;51335;51.148;6.950;2023-03-01T01:02:27;13.25;;;8.02;;
64857;SDS011;51335;51.148;6.950;2023-03-01T01:02:57;12.75;;;7.80;;
64857;SDS011;51335;51.148;6.950;2023-03-01T01:03:28;14.25;;;7.70;;
64857;SDS011;51335;51.148;6.950;2023-03-01T01:03:59;14.93;;;8.57;;
64857;SDS011;51335;51.148;6.950;2023-03-01T01:04:31;13.95;;;8.02;;
64857;SDS011;51335;51.148;6.950;2023-03-01T01:05:02;14.63;;;8.07;;
64857;SDS011;51335;51.148;6.950;2023-03-01T01:05:34;14.00;;;7.93;;
64857;SDS011;51335;51.148;6.950;2023-03-01T01:06:04;15.40;;;8.00;;
64857;SDS011;51335;51.148;6.950;2023-03-01T01:06:39;12.55;;;8.20;;
64857;SDS011;51335;51.148;6.950;2023-03-01T01:07:11;14.93;;;7.60;;
64857;SDS011;51335;51.148;6.950;2023-03-01T01:07:42;13.40;;;8.07;;
64857;SDS011;51335;51.148;6.950;2023-03-01T01:08:13;12.68;;;8.30;;
64857;SDS011;51335;51.148;6.950;2023-03-01T01:08:43;14.23;;;8.30;;
64857;SDS011;51335;51.148;6.950;2023-03-01T01:09:14;11.80;;;7.25;;
64857;SDS011;51335;51.148;6.950;2023-03-01T01:09:46;11.65;;;7.57;;
64857;SDS011;51335;51.148;6.950;2023-03-01T01:10:17;13.88;;;8.02;;
64857;SDS011;51335;51.148;6.950;2023-03-01T01:10:47;11.38;;;7.45;;
64857;SDS011;51335;51.148;6.950;2023-03-01T01:11:17;15.43;;;8.27;;
64857;SDS011;51335;51.148;6.950;2023-03-01T01:11:49;11.48;;;7.20;;
64857;SDS011;51335;51.148;6.950;2023-03-01T01:12:20;12.13;;;7.78;;
64857;SDS011;51335;51.148;6.950;2023-03-01T01:12:51;14.80;;;7.85;;
64857;SDS011;51335;51.148;6.950;2023-03-01T01:13:21;11.88;;;7.70;;
64857;SDS011;51335;51.148;6.950;2023-03-01T01:13:51;10.50;;;7.55;;
64857;SDS011;51335;51.148;6.950;2023-03-01T01:14:22;12.70;;;7.72;;
64857;SDS011;51335;51.148;6.950;2023-03-01T01:14:52;12.23;;;7.45;;
64857;SDS011;51335;51.148;6.950;2023-03-01T01:15:22;12.75;;;7.40;;
64857;SDS011;51335;51.148;6.950;2023-03-01T01:15:53;12.90;;;7.45;;
64857;SDS011;51335;51.148;6.950;2023-03-01T01:16:24;10.65;;;6.78;;
64857;SDS011;51335;51.148;6.950;2023-03-01T01:16:56;11.32;;;6.97;;
64857;SDS011;51335;51.148;6.950;2023-03-01T01:17:42;12.35;;;7.70;;
64857;SDS011;51335;51.148;6.950;2023-03-01T01:18:12;11.90;;;7.30;;
64857;SDS011;51335;51.148;6.950;2023-03-01T01:18:43;13.10;;;7.90;;
64857;SDS011;51335;51.148;6.950;2023-03-01T01:19:14;13.88;;;7.95;;
64857;SDS011;51335;51.148;6.950;2023-03-01T01:19:44;12.05;;;8.07;;
64857;SDS011;51335;51.148;6.950;2023-03-01T01:20:14;13.27;;;8.85;;
64857;SDS011;51335;51.148;6.950;2023-03-01T01:20:45;14.05;;;8.55;;
64857;SDS011;51335;51.148;6.950;2023-03-01T01:21:16;14.55;;;9.13;;
64857;SDS011;51335;51.148;6.950;2023-03-01T01:21:48;15.40;;;8.85;;
64857;SDS011;51335;51.148;6.950;2023-03-01T01:22:19;13.55;;;8.90;;
64857;SDS011;51335;51.148;6.950;2023-03-01T01:22:49;16.40;;;9.32;;
64857;SDS011;51335;51.148;6.950;2023-03-01T01:23:19;14.20;;;9.27;;
64857;SDS011;51335;51.148;6.950;2023-03-01T01:23:50;14.35;;;9.00;;
64857;SDS011;51335;51.148;6.950;2023-03-01T01:24:20;14.25;;;8.57;;
64857;SDS011;51335;51.148;6.950;2023-03-01T01:24:51;13.80;;;8.40;;
64857;SDS011;51335;51.148;6.950;2023-03-01T01:25:21;13.13;;;8.90;;
64857;SDS011;51335;51.148;6.950;2023-03-01T01:25:51;17.48;;;9.50;;
64857;SDS011;51335;51.148;6.950;2023-03-01T01:26:23;15.98;;;9.38;;
64857;SDS011;51335;51.148;6.950;2023-03-01T01:26:58;15.05;;;9.15;;
64857;SDS011;51335;51.148;6.950;2023-03-01T01:27:29;15.00;;;8.43;;
64857;SDS011;51335;51.148;6.950;2023-03-01T01:27:59;13.20;;;8.45;;
64857;SDS011;51335;51.148;6.950;2023-03-01T01:28:29;13.68;;;8.52;;
64857;SDS011;51335;51.148;6.950;2023-03-01T01:29:00;13.35;;;7.93;;
64857;SDS011;51335;51.148;6.950;2023-03-01T01:29:32;13.55;;;7.82;;
64857;SDS011;51335;51.148;6.950;2023-03-01T01:30:03;11.77;;;7.65;;
64857;SDS011;51335;51.148;6.950;2023-03-01T01:30:34;13.32;;;8.45;;
64857;SDS011;51335;51.148;6.950;2023-03-01T01:31:05;12.23;;;7.57;;
64857;SDS011;51335;51.148;6.950;2023-03-01T01:31:36;12.55;;;7.88;;
64857;SDS011;51335;51.148;6.950;2023-03-01T01:32:07;12.18;;;7.80;;
64857;SDS011;51335;51.148;6.950;2023-03-01T01:32:37;11.38;;;7.53;;
64857;SDS011;51335;51.148;6.950;2023-03-01T01:33:08;15.43;;;8.20;;
64857;SDS011;51335;51.148;6.950;2023-03-01T01:33:38;12.05;;;7.70;;
64857;SDS011;51335;51.148;6.950;2023-03-01T01:34:12;10.25;;;7.05;;
64857;SDS011;51335;51.148;6.950;2023-03-01T01:34:45;13.88;;;7.90;;
64857;SDS011;51335;51.148;6.950;2023-03-01T01:35:15;13.68;;;7.68;;
64857;SDS011;51335;51.148;6.950;2023-03-01T01:35:45;13.18;;;8.07;;
64857;SDS011;51335;51.148;6.950;2023-03-01T01:36:16;13.20;;;8.20;;
64857;SDS011;51335;51.148;6.950;2023-03-01T01:36:51;11.55;;;7.65;;
64857;SDS011;51335;51.148;6.950;2023-03-01T01:37:22;12.68;;;7.90;;
64857;SDS011;51335;51.148;6.950;2023-03-01T01:37:53;15.35;;;7.90;;
64857;SDS011;51335;51.148;6.950;2023-03-01T01:38:23;11.82;;;8.00;;
64857;SDS011;51335;51.148;6.950;2023-03-01T01:38:53;13.05;;;8.10;;
64857;SDS011;51335;51.148;6.950;2023-03-01T01:39:23;13.07;;;8.10;;
64857;SDS011;51335;51.148;6.950;2023-03-01T01:39:54;12.95;;;8.70;;
64857;SDS011;51335;51.148;6.950;2023-03-01T01:40:24;12.95;;;7.72;;
64857;SDS011;51335;51.148;6.950;2023-03-01T01:40:54;12.13;;;8.23;;
64857;SDS011;51335;51.148;6.950;2023-03-01T01:41:25;12.13;;;8.27;;
64857;SDS011;51335;51.148;6.950;2023-03-01T01:41:58;13.65;;;8.77;;
64857;SDS011;51335;51.148;6.950;2023-03-01T01:42:28;14.05;;;8.68;;
64857;SDS011;51335;51.148;6.950;2023-03-01T01:42:58;12.70;;;7.80;;
64857;SDS011;51335;51.148;6.950;2023-03-01T01:43:31;15.82;;;8.32;;
64857;SDS011;51335;51.148;6.950;2023-03-01T01:44:11;12.77;;;7.88;;
64857;SDS011;51335;51.148;6.950;2023-03-01T01:44:47;13.55;;;7.82;;
64857;SDS011;51335;51.148;6.950;2023-03-01T01:45:28;13.43;;;7.85;;
64857;SDS011;51335;51.148;6.950;2023-03-01T01:46:36;15.38;;;8.25;;
64857;SDS011;51335;51.148;6.950;2023-03-01T01:47:18;14.10;;;8.38;;
64857;SDS011;51335;51.148;6.950;2023-03-01T01:47:52;16.60;;;7.70;;
64857;SDS011;51335;51.148;6.950;2023-03-01T01:48:27;12.57;;;7.80;;
64857;SDS011;51335;51.148;6.950;2023-03-01T01:49:24;14.82;;;7.55;;
64857;SDS011;51335;51.148;6.950;2023-03-01T01:49:55;13.57;;;7.10;;
64857;SDS011;51335;51.148;6.950;2023-03-01T01:50:26;11.63;;;7.10;;
64857;SDS011;51335;51.148;6.950;2023-03-01T01:50:58;12.07;;;7.55;;
64857;SDS011;51335;51.148;6.950;2023-03-01T01:51:38;13.43;;;7.75;;
64857;SDS011;51335;51.148;6.950;2023-03-01T01:52:13;14.82;;;7.97;;
64857;SDS011;51335;51.148;6.950;2023-03-01T01:52:48;15.95;;;7.63;;
64857;SDS011;51335;51.148;6.950;2023-03-01T01:53:20;14.73;;;8.05;;
64857;SDS011;51335;51.148;6.950;2023-03-01T01:53:53;13.07;;;7.65;;
64857;SDS011;51335;51.148;6.950;2023-03-01T01:54:39;17.30;;;8.77;;
64857;SDS011;51335;51.148;6.950;2023-03-01T01:55:14;16.52;;;8.70;;
64857;SDS011;51335;51.148;6.950;2023-03-01T01:55:49;14.85;;;8.50;;
64857;SDS011;51335;51.148;6.950;2023-03-01T01:56:24;16.13;;;9.40;;
64857;SDS011;51335;51.148;6.950;2023-03-01T01:56:59;19.75;;;9.75;;
64857;SDS011;51335;51.148;6.950;2023-03-01T01:57:40;15.02;;;8.88;;
64857;SDS011;51335;51.148;6.950;2023-03-01T01:58:14;17.38;;;9.18;;
64857;SDS011;51335;51.148;6.950;2023-03-01T01:58:47;16.08;;;8.93;;
64857;SDS011;51335;51.148;6.950;2023-03-01T01:59:18;13.45;;;8.02;;
64857;SDS011;51335;51.148;6.950;2023-03-01T01:59:50;13.73;;;8.43;;
64857;SDS011;51335;51.148;6.950;2023-03-01T02:00:26;14.40;;;8.05;;
64857;SDS011;51335;51.148;6.950;2023-03-01T02:00:57;14.13;;;7.82;;
64857;SDS011;51335;51.148;6.950;2023-03-01T02:01:27;15.18;;;8.13;;
64857;SDS011;51335;51.148;6.950;2023-03-01T02:01:59;13.07;;;8.50;;
64857;SDS011;51335;51.148;6.950;2023-03-01T02:02:32;13.75;;;7.90;;
64857;SDS011;51335;51.148;6.950;2023-03-01T02:03:03;15.95;;;8.55;;
64857;SDS011;51335;51.148;6.950;2023-03-01T02:03:38;14.10;;;8.27;;
64857;SDS011;51335;51.148;6.950;2023-03-01T02:04:11;13.27;;;7.97;;
64857;SDS011;51335;51.148;6.950;2023-03-01T02:04:41;13.18;;;8.07;;
64857;SDS011;51335;51.148;6.950;2023-03-01T02:05:20;15.48;;;8.68;;
64857;SDS011;51335;51.148;6.950;2023-03-01T02:06:38;13.88;;;8.23;;
64857;SDS011;51335;51.148;6.950;2023-03-01T02:07:15;15.77;;;7.95;;
64857;SDS011;51335;51.148;6.950;2023-03-01T02:07:47;15.13;;;8.20;;
64857;SDS011;51335;51.148;6.950;2023-03-01T02:08:19;12.30;;;7.85;;
64857;SDS011;51335;51.148;6.950;2023-03-01T02:08:51;12.40;;;7.63;;
64857;SDS011;51335;51.148;6.950;2023-03-01T02:09:22;14.77;;;8.63;;
64857;SDS011;51335;51.148;6.950;2023-03-01T02:09:53;13.27;;;8.07;;
64857;SDS011;51335;51.148;6.950;2023-03-01T02:10:23;14.52;;;8.55;;
64857;SDS011;51335;51.148;6.950;2023-03-01T02:10:55;13.20;;;7.57;;
64857;SDS011;51335;51.148;6.950;2023-03-01T02:11:26;11.95;;;8.32;;
64857;SDS011;51335;51.148;6.950;2023-03-01T02:11:57;13.65;;;8.57;;
64857;SDS011;51335;51.148;6.950;2023-03-01T02:12:28;14.50;;;8.48;;
64857;SDS011;51335;51.148;6.950;2023-03-01T02:12:59;14.30;;;8.35;;
64857;SDS011;51335;51.148;6.950;2023-03-01T02:13:31;12.07;;;8.20;;
64857;SDS011;51335;51.148;6.950;2023-03-01T02:14:03;13.48;;;8.25;;
64857;SDS011;51335;51.148;6.950;2023-03-01T02:14:35;15.00;;;8.60;;
64857;SDS011;51335;51.148;6.950;2023-03-01T02:15:05;14.23;;;8.32;;
64857;SDS011;51335;51.148;6.950;2023-03-01T02:15:36;13.85;;;8.82;;
64857;SDS011;51335;51.148;6.950;2023-03-01T02:16:09;12.43;;;7.85;;
64857;SDS011;51335;51.148;6.950;2023-03-01T02:16:41;12.70;;;8.18;;
64857;SDS011;51335;51.148;6.950;2023-03-01T02:17:12;13.40;;;7.68;;
64857;SDS011;51335;51.148;6.950;2023-03-01T02:17:44;12.00;;;7.70;;
64857;SDS011;51335;51.148;6.950;2023-03-01T02:18:17;13.82;;;8.50;;
64857;SDS011;51335;51.148;6.950;2023-03-01T02:18:48;12.88;;;8.05;;
64857;SDS011;51335;51.148;6.950;2023-03-01T02:19:44;13.55;;;8.60;;
64857;SDS011;51335;51.148;6.950;2023-03-01T02:21:50;12.20;;;7.07;;
64857;SDS011;51335;51.148;6.950;2023-03-01T02:23:04;11.07;;;6.38;;
64857;SDS011;51335;51.148;6.950;2023-03-01T02:23:34;11.30;;;7.05;;
64857;SDS011;51335;51.148;6.950;2023-03-01T02:24:21;11.43;;;7.50;;
64857;SDS011;51335;51.148;6.950;2023-03-01T02:26:23;11.35;;;7.55;;
64857;SDS011;51335;51.148;6.950;2023-03-01T02:27:04;12.00;;;7.20;;
64857;SDS011;51335;51.148;6.950;2023-03-01T02:27:36;11.85;;;7.43;;
64857;SDS011;51335;51.148;6.950;2023-03-01T02:28:44;13.85;;;7.70;;
64857;SDS011;51335;51.148;6.950;2023-03-01T02:29:15;13.05;;;7.55;;
64857;SDS011;51335;51.148;6.950;2023-03-01T02:29:45;14.88;;;8.18;;
64857;SDS011;51335;51.148;6.950;2023-03-01T02:30:15;13.45;;;8.00;;
64857;SDS011;51335;51.148;6.950;2023-03-01T02:30:47;14.02;;;7.95;;
64857;SDS011;51335;51.148;6.950;2023-03-01T02:31:19;11.02;;;7.70;;
64857;SDS011;51335;51.148;6.950;2023-03-01T02:31:51;13.63;;;8.30;;
64857;SDS011;51335;51.148;6.950;2023-03-01T02:32:24;13.25;;;8.20;;
64857;SDS011;51335;51.148;6.950;2023-03-01T02:32:54;16.55;;;8.82;;
64857;SDS011;51335;51.148;6.950;2023-03-01T02:33:27;14.60;;;8.35;;
64857;SDS011;51335;51.148;6.950;2023-03-01T02:33:57;13.32;;;8.45;;
64857;SDS011;51335;51.148;6.950;2023-03-01T02:34:28;13.90;;;8.63;;
64857;SDS011;51335;51.148;6.950;2023-03-01T02:35:01;14.73;;;8.40;;
64857;SDS011;51335;51.148;6.950;2023-03-01T02:35:34;14.63;;;8.65;;
64857;SDS011;51335;51.148;6.950;2023-03-01T02:36:15;13.80;;;8.40;;
64857;SDS011;51335;51.148;6.950;2023-03-01T02:36:56;14.27;;;8.13;;
64857;SDS011;51335;51.148;6.950;2023-03-01T02:38:00;14.52;;;8.15;;
64857;SDS011;51335;51.148;6.950;2023-03-01T02:38:31;13.95;;;8.80;;
64857;SDS011;51335;51.148;6.950;2023-03-01T02:39:03;12.55;;;7.45;;
64857;SDS011;51335;51.148;6.950;2023-03-01T02:39:45;13.05;;;8.13;;
64857;SDS011;51335;51.148;6.950;2023-03-01T02:40:18;12.70;;;7.75;;
64857;SDS011;51335;51.148;6.950;2023-03-01T02:40:50;11.80;;;7.93;;
64857;SDS011;51335;51.148;6.950;2023-03-01T02:41:21;15.48;;;8.65;;
64857;SDS011;51335;51.148;6.950;2023-03-01T02:41:53;16.92;;;9.27;;
64857;SDS011;51335;51.148;6.950;2023-03-01T02:42:26;13.85;;;9.02;;
64857;SDS011;51335;51.148;6.950;2023-03-01T02:43:01;15.27;;;8.45;;
64857;SDS011;51335;51.148;6.950;2023-03-01T02:43:34;15.90;;;9.05;;
64857;SDS011;51335;51.148;6.950;2023-03-01T02:44:04;15.25;;;9.00;;
64857;SDS011;51335;51.148;6.950;2023-03-01T02:44:35;15.40;;;8.85;;
64857;SDS011;51335;51.148;6.950;2023-03-01T02:45:05;15.07;;;9.00;;
64857;SDS011;51335;51.148;6.950;2023-03-01T02:45:36;16.13;;;9.05;;
64857;SDS011;51335;51.148;6.950;2023-03-01T02:46:14;13.45;;;8.57;;
64857;SDS011;51335;51.148;6.950;2023-03-01T02:46:47;14.48;;;8.68;;
64857;SDS011;51335;51.148;6.950;2023-03-01T02:47:20;16.88;;;8.70;;
64857;SDS011;51335;51.148;6.950;2023-03-01T02:47:53;16.58;;;8.85;;
64857;SDS011;51335;51.148;6.950;2023-03-01T02:48:24;16.15;;;9.60;;
64857;SDS011;51335;51.148;6.950;2023-03-01T02:48:56;15.15;;;8.88;;
64857;SDS011;51335;51.148;6.950;2023-03-01T02:49:28;15.45;;;8.57;;
64857;SDS011;51335;51.148;6.950;2023-03-01T02:50:00;12.70;;;8.13;;
64857;SDS011;51335;51.148;6.950;2023-03-01T02:51:03;14.20;;;9.23;;
64857;SDS011;51335;51.148;6.950;2023-03-01T02:55:11;15.50;;;8.02;;
64857;SDS011;51335;51.148;6.950;2023-03-01T02:55:43;13.70;;;7.80;;
64857;SDS011;51335;51.148;6.950;2023-03-01T02:56:14;12.45;;;8.15;;
64857;SDS011;51335;51.148;6.950;2023-03-01T02:56:45;14.18;;;8.15;;
64857;SDS011;51335;51.148;6.950;2023-03-01T02:57:17;12.65;;;8.30;;
64857;SDS011;51335;51.148;6.950;2023-03-01T02:57:49;13.88;;;8.63;;
64857;SDS011;51335;51.148;6.950;2023-03-01T02:58:19;13.55;;;8.40;;
64857;SDS011;51335;51.148;6.950;2023-03-01T02:58:50;13.30;;;8.88;;
64857;SDS011;51335;51.148;6.950;2023-03-01T02:59:22;14.98;;;8.70;;
64857;SDS011;51335;51.148;6.950;2023-03-01T02:59:57;13.68;;;8.60;;
64857;SDS011;51335;51.148;6.950;2023-03-01T03:00:33;14.07;;;8.75;;
64857;SDS011;51335;51.148;6.950;2023-03-01T03:01:06;13.52;;;8.52;;
64857;SDS011;51335;51.148;6.950;2023-03-01T03:01:36;12.27;;;8.05;;
64857;SDS011;51335;51.148;6.950;2023-03-01T03:02:07;13.40;;;8.32;;
64857;SDS011;51335;51.148;6.950;2023-03-01T03:02:51;13.95;;;8.63;;
64857;SDS011;51335;51.148;6.950;2023-03-01T03:03:23;11.30;;;7.88;;
64857;SDS011;51335;51.148;6.950;2023-03-01T03:03:53;13.40;;;7.50;;
64857;SDS011;51335;51.148;6.950;2023-03-01T03:04:23;15.07;;;8.40;;
64857;SDS011;51335;51.148;6.950;2023-03-01T03:04:53;15.32;;;9.05;;
64857;SDS011;51335;51.148;6.950;2023-03-01T03:05:25;14.52;;;8.82;;
64857;SDS011;51335;51.148;6.950;2023-03-01T03:05:57;13.18;;;8.23;;
64857;SDS011;51335;51.148;6.950;2023-03-01T03:06:28;14.35;;;8.70;;
64857;SDS011;51335;51.148;6.950;2023-03-01T03:06:58;12.40;;;8.07;;
64857;SDS011;51335;51.148;6.950;2023-03-01T03:07:28;11.35;;;7.68;;
64857;SDS011;51335;51.148;6.950;2023-03-01T03:07:59;14.35;;;8.48;;
64857;SDS011;51335;51.148;6.950;2023-03-01T03:08:31;14.10;;;8.43;;
64857;SDS011;51335;51.148;6.950;2023-03-01T03:09:01;14.45;;;8.30;;
64857;SDS011;51335;51.148;6.950;2023-03-01T03:09:32;15.32;;;8.85;;
64857;SDS011;51335;51.148;6.950;2023-03-01T03:10:03;13.02;;;8.23;;
64857;SDS011;51335;51.148;6.950;2023-03-01T03:10:40;14.00;;;8.25;;
64857;SDS011;51335;51.148;6.950;2023-03-01T03:11:11;13.60;;;7.97;;
64857;SDS011;51335;51.148;6.950;2023-03-01T03:11:41;12.50;;;8.27;;
64857;SDS011;51335;51.148;6.950;2023-03-01T03:12:12;13.77;;;8.43;;
64857;SDS011;51335;51.148;6.950;2023-03-01T03:12:42;11.75;;;8.30;;
64857;SDS011;51335;51.148;6.950;2023-03-01T03:13:13;12.70;;;7.40;;
64857;SDS011;51335;51.148;6.950;2023-03-01T03:13:43;13.90;;;8.60;;
64857;SDS011;51335;51.148;6.950;2023-03-01T03:14:14;12.85;;;8.23;;
64857;SDS011;51335;51.148;6.950;2023-03-01T03:14:46;12.82;;;8.18;;
64857;SDS011;51335;51.148;6.950;2023-03-01T03:15:16;13.15;;;8.52;;
64857;SDS011;51335;51.148;6.950;2023-03-01T03:15:47;11.77;;;8.15;;
64857;SDS011;51335;51.148;6.950;2023-03-01T03:16:18;14.45;;;8.75;;
64857;SDS011;51335;51.148;6.950;2023-03-01T03:16:49;13.20;;;9.10;;
64857;SDS011;51335;51.148;6.950;2023-03-01T03:17:20;13.20;;;8.32;;
64857;SDS011;51335;51.148;6.950;2023-03-01T03:17:51;13.15;;;8.45;;
64857;SDS011;51335;51.148;6.950;2023-03-01T03:18:22;15.55;;;8.55;;
64857;SDS011;51335;51.148;6.950;2023-03-01T03:18:53;13.20;;;8.43;;
64857;SDS011;51335;51.148;6.950;2023-03-01T03:19:24;15.93;;;8.57;;
64857;SDS011;51335;51.148;6.950;2023-03-01T03:19:54;13.93;;;8.10;;
64857;SDS011;51335;51.148;6.950;2023-03-01T03:20:25;12.35;;;8.10;;